Terminal Aerodrome Forecast
Issued by NWS

Home | Current Version | Previous Version | Text Only | Print | Product List | Glossary On
Versions: 1 2 3 4 5 6 7 8 9 10 11 12 13 14 15 16 17 18 19 20 21 22 23 24 25
000
FTUS43 KGRB 291723
TAFATW
TAF
KATW 291723Z 2918/3018 21007KT P6SM VCSH SCT020 BKN050
     FM300000 19006KT P6SM FEW050 BKN120
     FM300500 21004KT 4SM BR SCT050 BKN120
     FM300900 20003KT 3SM BR BKN040
      TEMPO 3009/3013 1 1/2SM BR SCT003 BKN040
     FM301500 25006KT P6SM VCSH SCT025 OVC060=

USA.gov is the U.S. government's official web portal to all federal, state and local government web resources and services.